Airport View

Enter AWOS ICAO identifier for current METAR.

ex. KFNL

KMAN 171235Z AUTO 12003KT 10SM M00/M01 A3034 RMK A01

17 Nov 2019 12:35

Frequency: 118.325

Phone: (208) 318-0040

Other Area AWOS: KEUL - KBOI - KONO - KMUO

TAF KBOI 171138Z 1712/1812 13007KT P6SM BKN200 FM171900 33005KT P6SM SCT200 FM180300 13007KT P6SM SCT200